createdAt,value
2023-03-21T00:00:01.192Z,90.057373
2023-03-21T00:01:09.854Z,89.953613
2023-03-21T00:02:19.530Z,89.953613
2023-03-21T00:03:29.237Z,89.849854
2023-03-21T00:04:48.709Z,89.849854
2023-03-21T00:05:49.609Z,89.849854
2023-03-21T00:06:58.107Z,89.849854
2023-03-21T00:08:07.769Z,89.953613
2023-03-21T00:09:15.425Z,89.953613
2023-03-21T00:10:37.428Z,90.057373
2023-03-21T00:11:35.723Z,90.057373
2023-03-21T00:12:45.364Z,90.057373
2023-03-21T00:13:55.023Z,90.155029
2023-03-21T00:15:04.715Z,90.155029
2023-03-21T00:16:14.343Z,90.258789
2023-03-21T00:17:24.974Z,90.155029
2023-03-21T00:18:34.624Z,90.155029
2023-03-21T00:19:43.307Z,90.258789
2023-03-21T00:21:04.797Z,90.362549
2023-03-21T00:22:07.820Z,90.466309
2023-03-21T00:23:13.251Z,90.466309
2023-03-21T00:24:22.922Z,90.466309
2023-03-21T00:25:31.612Z,90.466309
2023-03-21T00:26:41.233Z,90.570068
2023-03-21T00:28:05.433Z,90.673828
2023-03-21T00:28:59.515Z,90.777588
2023-03-21T00:30:09.231Z,90.777588
2023-03-21T00:31:17.879Z,90.777588
2023-03-21T00:32:27.548Z,90.875244
2023-03-21T00:33:36.197Z,90.979004
2023-03-21T00:34:58.769Z,90.979004
2023-03-21T00:36:05.077Z,91.082764
2023-03-21T00:37:07.120Z,91.082764
2023-03-21T00:38:15.764Z,91.082764
2023-03-21T00:39:25.421Z,91.082764
2023-03-21T00:40:40.374Z,91.186523
2023-03-21T00:41:44.755Z,91.186523
2023-03-21T00:42:53.370Z,91.290283
2023-03-21T00:44:03.037Z,91.290283
2023-03-21T00:45:12.717Z,91.186523
2023-03-21T00:46:23.237Z,91.186523
2023-03-21T00:47:31.064Z,91.186523
2023-03-21T00:48:40.659Z,91.082764
2023-03-21T00:49:49.318Z,91.186523
2023-03-21T00:50:58.005Z,91.186523
2023-03-21T00:52:15.969Z,91.186523
2023-03-21T00:53:18.282Z,91.186523
2023-03-21T00:54:27.940Z,91.186523
2023-03-21T00:55:36.840Z,91.186523
2023-03-21T00:56:45.262Z,91.290283
2023-03-21T00:58:01.416Z,91.290283
2023-03-21T00:59:05.566Z,91.186523
2023-03-21T01:00:15.227Z,91.186523
2023-03-21T01:01:23.884Z,91.186523
2023-03-21T01:02:33.566Z,91.290283
2023-03-21T01:03:43.222Z,91.186523
2023-03-21T01:04:50.885Z,91.290283
2023-03-21T01:05:59.566Z,91.290283
2023-03-21T01:07:09.282Z,91.290283
2023-03-21T01:08:25.304Z,91.351318
2023-03-21T01:09:27.516Z,91.351318
2023-03-21T01:10:36.196Z,91.448975
2023-03-21T01:11:45.893Z,91.448975
2023-03-21T01:12:55.503Z,91.351318
2023-03-21T01:14:19.038Z,91.351318
2023-03-21T01:15:14.770Z,91.448975
2023-03-21T01:16:24.501Z,91.448975
2023-03-21T01:17:33.124Z,91.448975
2023-03-21T01:18:42.776Z,91.448975
2023-03-21T01:19:52.439Z,91.351318
2023-03-21T01:21:01.069Z,91.351318
2023-03-21T01:22:09.728Z,91.448975
2023-03-21T01:23:18.370Z,91.552734
2023-03-21T01:24:28.060Z,91.552734
2023-03-21T01:25:37.008Z,91.448975
2023-03-21T01:26:44.400Z,91.448975
2023-03-21T01:27:54.085Z,91.448975
2023-03-21T01:29:03.748Z,91.448975
2023-03-21T01:30:19.583Z,91.552734
2023-03-21T01:31:24.071Z,91.552734
2023-03-21T01:32:33.708Z,91.552734
2023-03-21T01:33:43.369Z,91.552734
2023-03-21T01:34:52.026Z,91.552734
2023-03-21T01:36:11.981Z,91.552734
2023-03-21T01:37:12.344Z,91.448975
2023-03-21T01:38:21.987Z,91.351318
2023-03-21T01:39:30.674Z,91.351318
2023-03-21T01:40:40.319Z,91.448975
2023-03-21T01:41:48.974Z,91.448975
2023-03-21T01:42:58.658Z,91.448975
2023-03-21T01:44:07.298Z,91.552734
2023-03-21T01:45:14.958Z,91.552734
2023-03-21T01:46:23.676Z,91.552734
2023-03-21T01:47:33.293Z,91.552734
2023-03-21T01:48:41.950Z,91.552734
2023-03-21T01:49:51.599Z,91.552734
2023-03-21T01:51:01.279Z,91.448975
2023-03-21T01:52:14.130Z,91.351318
2023-03-21T01:53:21.566Z,91.448975
2023-03-21T01:54:30.219Z,91.448975
2023-03-21T01:55:40.122Z,91.552734
2023-03-21T01:56:48.553Z,91.760254
2023-03-21T01:58:05.690Z,91.760254
2023-03-21T01:59:08.898Z,91.864014
2023-03-21T02:00:17.501Z,91.864014
2023-03-21T02:01:27.190Z,91.967773
2023-03-21T02:02:36.845Z,91.967773
2023-03-21T02:03:44.510Z,91.967773
2023-03-21T02:04:54.158Z,91.967773
2023-03-21T02:06:02.845Z,92.071533
2023-03-21T02:07:11.494Z,92.169189
2023-03-21T02:08:20.957Z,92.169189
2023-03-21T02:09:29.793Z,92.169189
2023-03-21T02:10:39.458Z,92.376709
2023-03-21T02:11:47.154Z,92.376709
2023-03-21T02:12:55.801Z,92.376709
2023-03-21T02:14:06.929Z,92.376709
2023-03-21T02:15:14.109Z,92.272949
2023-03-21T02:16:23.777Z,92.376709
2023-03-21T02:17:32.422Z,92.376709
2023-03-21T02:18:42.069Z,92.169189
2023-03-21T02:19:53.634Z,92.169189
2023-03-21T02:21:01.367Z,92.071533
2023-03-21T02:22:11.044Z,91.967773
2023-03-21T02:23:20.708Z,92.169189
2023-03-21T02:24:30.367Z,92.071533
2023-03-21T02:25:38.231Z,92.071533
2023-03-21T02:26:50.219Z,91.967773
2023-03-21T02:27:57.310Z,91.967773
2023-03-21T02:29:06.982Z,91.967773
2023-03-21T02:30:23.324Z,91.864014
2023-03-21T02:31:25.308Z,91.967773
2023-03-21T02:32:37.627Z,91.967773
2023-03-21T02:33:44.584Z,91.967773
2023-03-21T02:34:54.245Z,91.967773
2023-03-21T02:36:13.515Z,91.967773
2023-03-21T02:37:12.560Z,91.864014
2023-03-21T02:38:23.208Z,91.864014
2023-03-21T02:39:31.854Z,91.864014
2023-03-21T02:40:41.517Z,91.760254
2023-03-21T02:41:51.212Z,91.760254
2023-03-21T02:43:01.382Z,91.760254
2023-03-21T02:44:10.491Z,91.760254
2023-03-21T02:45:20.164Z,91.864014
2023-03-21T02:46:36.578Z,91.864014
2023-03-21T02:47:40.521Z,91.967773
2023-03-21T02:48:50.770Z,91.967773
2023-03-21T02:49:55.767Z,91.967773
2023-03-21T02:51:05.409Z,91.864014
2023-03-21T02:52:18.646Z,91.864014
2023-03-21T02:53:24.720Z,91.864014
2023-03-21T02:54:47.160Z,91.821289
2023-03-21T02:55:43.019Z,91.760254
2023-03-21T02:56:52.696Z,91.760254
2023-03-21T02:58:10.367Z,91.656494
2023-03-21T02:59:08.966Z,91.656494
2023-03-21T03:00:18.624Z,91.760254
2023-03-21T03:01:27.354Z,91.760254
2023-03-21T03:02:35.972Z,91.656494
2023-03-21T03:03:45.607Z,91.552734
2023-03-21T03:04:55.258Z,91.552734
2023-03-21T03:06:04.919Z,91.552734
2023-03-21T03:07:13.604Z,91.552734
2023-03-21T03:08:32.376Z,91.448975
2023-03-21T03:09:33.910Z,91.448975
2023-03-21T03:10:42.572Z,91.552734
2023-03-21T03:11:51.248Z,91.552734
2023-03-21T03:12:59.917Z,91.448975
2023-03-21T03:14:28.489Z,91.552734
2023-03-21T03:15:20.216Z,91.51001
2023-03-21T03:16:29.904Z,91.552734
2023-03-21T03:17:39.555Z,91.448975
2023-03-21T03:18:47.222Z,91.351318
2023-03-21T03:19:53.875Z,91.351318
2023-03-21T03:21:03.517Z,91.247559
2023-03-21T03:22:13.227Z,91.247559
2023-03-21T03:23:22.889Z,91.247559
2023-03-21T03:24:31.555Z,91.247559
2023-03-21T03:25:43.147Z,91.040039
2023-03-21T03:26:50.858Z,91.101074
2023-03-21T03:27:58.528Z,91.101074
2023-03-21T03:29:07.167Z,91.101074
2023-03-21T03:30:16.868Z,90.997314
2023-03-21T03:31:25.547Z,90.997314
2023-03-21T03:32:36.230Z,91.101074
2023-03-21T03:33:45.875Z,90.997314
2023-03-21T03:34:54.524Z,90.997314
2023-03-21T03:36:06.713Z,90.997314
2023-03-21T03:37:14.854Z,90.997314
2023-03-21T03:38:23.506Z,90.893555
2023-03-21T03:39:33.159Z,91.101074
2023-03-21T03:40:42.827Z,90.997314
2023-03-21T03:42:21.628Z,90.997314
2023-03-21T03:43:03.108Z,91.101074
2023-03-21T03:44:12.766Z,91.101074
2023-03-21T03:45:22.438Z,90.997314
2023-03-21T03:46:31.131Z,90.997314
2023-03-21T03:47:50.758Z,90.997314
2023-03-21T03:48:51.425Z,90.997314
2023-03-21T03:50:01.081Z,90.997314
2023-03-21T03:51:10.751Z,90.997314
2023-03-21T03:52:20.401Z,91.101074
2023-03-21T03:53:29.082Z,90.997314
2023-03-21T03:54:38.779Z,91.101074
2023-03-21T03:55:47.426Z,91.101074
2023-03-21T03:56:55.079Z,91.101074
2023-03-21T03:58:08.269Z,91.204834
2023-03-21T03:59:15.424Z,91.101074
2023-03-21T04:00:25.068Z,91.101074
2023-03-21T04:01:34.789Z,90.997314
2023-03-21T04:02:44.458Z,90.997314
2023-03-21T04:04:03.675Z,90.893555
2023-03-21T04:05:04.690Z,90.795898
2023-03-21T04:06:14.353Z,90.997314
2023-03-21T04:07:24.024Z,90.893555
2023-03-21T04:08:33.719Z,91.101074
2023-03-21T04:09:44.765Z,90.997314
2023-03-21T04:10:53.023Z,91.143799
2023-03-21T04:12:02.675Z,91.143799
2023-03-21T04:13:12.358Z,91.204834
2023-03-21T04:14:22.003Z,91.247559
2023-03-21T04:15:32.652Z,91.143799
2023-03-21T04:16:42.327Z,91.143799
2023-03-21T04:17:51.056Z,91.143799
2023-03-21T04:19:00.685Z,91.247559
2023-03-21T04:20:13.026Z,91.351318
2023-03-21T04:21:18.982Z,91.351318
2023-03-21T04:22:28.676Z,91.351318
2023-03-21T04:23:37.350Z,91.412354
2023-03-21T04:24:47.006Z,91.412354
2023-03-21T04:25:57.430Z,91.351318
2023-03-21T04:27:05.332Z,91.448975
2023-03-21T04:28:15.024Z,91.448975
2023-03-21T04:29:24.683Z,91.552734
2023-03-21T04:30:34.342Z,91.552734
2023-03-21T04:31:44.020Z,91.656494
2023-03-21T04:32:53.715Z,91.656494
2023-03-21T04:34:02.353Z,91.552734
2023-03-21T04:35:12.033Z,91.656494
2023-03-21T04:36:21.685Z,91.656494
2023-03-21T04:37:31.346Z,91.552734
2023-03-21T04:38:40.153Z,91.552734
2023-03-21T04:39:49.860Z,91.656494
2023-03-21T04:40:59.535Z,91.656494
2023-03-21T04:42:08.188Z,91.760254
2023-03-21T04:43:16.859Z,91.656494
2023-03-21T04:44:26.532Z,91.656494
2023-03-21T04:45:36.241Z,91.656494
2023-03-21T04:46:45.896Z,91.656494
2023-03-21T04:47:54.594Z,91.656494
2023-03-21T04:49:03.254Z,91.760254
2023-03-21T04:50:13.914Z,91.760254
2023-03-21T04:51:23.558Z,91.864014
2023-03-21T04:52:32.202Z,91.864014
2023-03-21T04:53:41.905Z,91.864014
2023-03-21T04:54:51.558Z,91.760254
2023-03-21T04:56:01.212Z,91.656494
2023-03-21T04:57:10.864Z,91.656494
2023-03-21T04:58:20.543Z,91.656494
2023-03-21T04:59:30.217Z,91.656494
2023-03-21T05:00:38.872Z,91.760254
2023-03-21T05:01:46.527Z,91.760254
2023-03-21T05:02:56.198Z,91.967773
2023-03-21T05:04:05.960Z,91.821289
2023-03-21T05:05:15.596Z,92.028809
2023-03-21T05:06:25.242Z,91.925049
2023-03-21T05:07:33.898Z,91.925049
2023-03-21T05:08:43.628Z,91.925049
2023-03-21T05:09:53.295Z,91.821289
2023-03-21T05:11:01.977Z,91.717529
2023-03-21T05:12:11.693Z,91.717529
2023-03-21T05:13:19.355Z,91.656494
2023-03-21T05:14:29.203Z,91.656494
2023-03-21T05:15:38.165Z,91.656494
2023-03-21T05:16:47.497Z,91.760254
2023-03-21T05:17:57.136Z,91.864014
2023-03-21T05:19:06.846Z,91.864014
2023-03-21T05:20:16.532Z,91.864014
2023-03-21T05:21:26.165Z,91.967773
2023-03-21T05:22:33.989Z,92.071533
2023-03-21T05:23:43.629Z,92.071533
2023-03-21T05:24:52.295Z,92.169189
2023-03-21T05:26:01.951Z,92.376709
2023-03-21T05:27:10.622Z,92.376709
2023-03-21T05:28:20.288Z,92.480469
2023-03-21T05:29:30.195Z,92.480469
2023-03-21T05:30:37.871Z,92.376709
2023-03-21T05:31:46.529Z,92.272949
2023-03-21T05:32:56.197Z,92.272949
2023-03-21T05:34:05.867Z,92.333984
2023-03-21T05:35:15.530Z,92.230225
2023-03-21T05:36:25.221Z,92.126465
2023-03-21T05:37:34.846Z,92.126465
2023-03-21T05:38:44.505Z,92.028809
2023-03-21T05:39:53.190Z,91.925049
2023-03-21T05:41:02.864Z,92.028809
2023-03-21T05:42:12.553Z,92.028809
2023-03-21T05:43:22.205Z,91.925049
2023-03-21T05:44:31.876Z,92.028809
2023-03-21T05:45:41.538Z,91.925049
2023-03-21T05:46:51.179Z,91.925049
2023-03-21T05:48:00.925Z,91.925049
2023-03-21T05:49:10.532Z,91.925049
2023-03-21T05:50:19.209Z,91.778564
2023-03-21T05:51:28.898Z,91.821289
2023-03-21T05:52:37.526Z,91.925049
2023-03-21T05:53:46.187Z,91.925049
2023-03-21T05:54:55.895Z,91.821289
2023-03-21T05:56:05.566Z,91.821289
2023-03-21T05:57:15.238Z,91.778564
2023-03-21T05:58:23.888Z,91.778564
2023-03-21T05:59:32.562Z,91.571045
2023-03-21T06:00:42.217Z,91.571045
2023-03-21T06:01:51.886Z,91.571045
2023-03-21T06:03:01.615Z,91.571045
2023-03-21T06:04:11.232Z,91.674805
2023-03-21T06:05:20.878Z,91.265869
2023-03-21T06:06:30.531Z,91.05835
2023-03-21T06:07:38.202Z,91.162109
2023-03-21T06:08:45.845Z,91.162109
2023-03-21T06:09:55.544Z,90.85083
2023-03-21T06:11:05.211Z,90.95459
2023-03-21T06:12:13.856Z,90.85083
2023-03-21T06:13:23.509Z,90.753174
2023-03-21T06:14:32.183Z,90.649414
2023-03-21T06:15:41.881Z,90.545654
2023-03-21T06:16:50.502Z,90.50293
2023-03-21T06:18:00.168Z,90.911865
2023-03-21T06:19:09.823Z,90.814209
2023-03-21T06:20:18.497Z,90.301514
2023-03-21T06:21:27.143Z,90.197754
2023-03-21T06:22:35.790Z,90.093994
2023-03-21T06:23:44.477Z,89.990234
2023-03-21T06:24:54.144Z,89.886475
2023-03-21T06:26:02.796Z,89.886475
2023-03-21T06:27:10.465Z,90.05127
2023-03-21T06:28:21.133Z,89.94751
2023-03-21T06:29:30.758Z,89.434814
2023-03-21T06:30:40.455Z,89.642334
2023-03-21T06:31:50.188Z,89.538574
2023-03-21T06:32:59.853Z,89.434814
2023-03-21T06:34:09.514Z,89.331055
2023-03-21T06:35:17.204Z,89.233398
2023-03-21T06:36:25.851Z,89.129639
2023-03-21T06:37:35.549Z,89.086914
2023-03-21T06:38:44.222Z,88.983154
2023-03-21T06:39:55.092Z,88.470459
2023-03-21T06:41:02.584Z,88.470459
2023-03-21T06:42:12.249Z,88.574219
2023-03-21T06:43:21.913Z,88.574219
2023-03-21T06:44:30.623Z,88.269043
2023-03-21T06:45:40.300Z,88.366699
2023-03-21T06:46:49.983Z,87.854004
2023-03-21T06:47:59.688Z,87.957764
2023-03-21T06:49:08.280Z,87.713623
2023-03-21T06:50:16.974Z,87.506104
2023-03-21T06:51:25.632Z,87.408447
2023-03-21T06:52:35.332Z,87.304688
2023-03-21T06:53:44.996Z,87.304688
2023-03-21T06:54:52.633Z,87.200928
2023-03-21T06:56:02.362Z,86.895752
2023-03-21T06:57:11.010Z,86.645508
2023-03-21T06:58:20.672Z,86.035156
2023-03-21T06:59:29.329Z,86.035156
2023-03-21T07:00:39.042Z,85.931396
2023-03-21T07:01:48.689Z,85.827637
2023-03-21T07:02:58.359Z,85.723877
2023-03-21T07:04:05.999Z,86.035156
2023-03-21T07:05:15.717Z,86.035156
2023-03-21T07:06:25.356Z,85.479736
2023-03-21T07:07:33.001Z,85.38208
2023-03-21T07:08:42.735Z,85.479736
2023-03-21T07:09:52.385Z,85.546875
2023-03-21T07:11:02.063Z,85.339355
2023-03-21T07:12:11.741Z,85.03418
2023-03-21T07:13:21.382Z,84.686279
2023-03-21T07:14:31.043Z,84.381104
2023-03-21T07:15:40.749Z,83.764648
2023-03-21T07:16:49.472Z,83.972168
2023-03-21T07:17:59.100Z,83.660889
2023-03-21T07:19:07.757Z,83.319092
2023-03-21T07:20:17.481Z,82.806396
2023-03-21T07:21:27.212Z,82.910156
2023-03-21T07:22:36.891Z,82.397461
2023-03-21T07:23:46.564Z,82.092285
2023-03-21T07:25:04.226Z,81.988525
2023-03-21T07:26:04.885Z,81.884766
2023-03-21T07:27:13.577Z,81.951904
2023-03-21T07:28:23.204Z,81.646729
2023-03-21T07:29:31.907Z,80.926514
2023-03-21T07:30:41.587Z,81.030273
2023-03-21T07:31:51.252Z,80.926514
2023-03-21T07:33:00.925Z,81.030273
2023-03-21T07:34:09.607Z,80.969238
2023-03-21T07:35:18.319Z,81.274414
2023-03-21T07:36:27.012Z,81.68335
2023-03-21T07:37:38.091Z,81.988525
2023-03-21T07:38:45.360Z,81.988525
2023-03-21T07:39:54.019Z,81.68335
2023-03-21T07:41:03.692Z,81.47583
2023-03-21T07:42:13.349Z,81.848145
2023-03-21T07:43:22.019Z,81.439209
2023-03-21T07:44:30.660Z,81.237793
2023-03-21T07:45:40.577Z,81.030273
2023-03-21T07:46:48.997Z,81.335449
2023-03-21T07:47:58.758Z,81.030273
2023-03-21T07:49:08.334Z,80.725098
2023-03-21T07:50:16.990Z,80.688477
2023-03-21T07:51:25.684Z,80.688477
2023-03-21T07:52:34.357Z,80.377197
2023-03-21T07:53:44.023Z,79.931641
2023-03-21T07:54:52.684Z,79.730225
2023-03-21T07:56:01.357Z,79.626465
2023-03-21T07:57:13.536Z,79.626465
2023-03-21T07:58:20.681Z,79.321289
2023-03-21T07:59:30.368Z,79.016113
2023-03-21T08:00:41.043Z,79.486084
2023-03-21T08:01:50.785Z,79.180908
2023-03-21T08:03:00.591Z,78.674316
2023-03-21T08:04:09.148Z,78.875732
2023-03-21T08:05:18.884Z,78.674316
2023-03-21T08:06:28.565Z,78.771973
2023-03-21T08:07:37.210Z,78.466797
2023-03-21T08:08:45.880Z,77.819824
2023-03-21T08:09:55.546Z,78.33252
2023-03-21T08:11:05.208Z,78.125
2023-03-21T08:12:14.898Z,77.923584
2023-03-21T08:13:24.577Z,77.514648
2023-03-21T08:14:33.270Z,77.410889
2023-03-21T08:15:42.983Z,77.34375
2023-03-21T08:16:53.645Z,77.752686
2023-03-21T08:18:03.270Z,77.996826
2023-03-21T08:19:10.933Z,78.302002
2023-03-21T08:20:20.640Z,78.466797
2023-03-21T08:21:30.309Z,78.265381
2023-03-21T08:22:37.965Z,77.960205
2023-03-21T08:23:45.626Z,78.02124
2023-03-21T08:24:55.314Z,77.514648
2023-03-21T08:26:04.963Z,76.660156
2023-03-21T08:27:14.660Z,76.153564
2023-03-21T08:28:23.329Z,75.848389
2023-03-21T08:29:31.975Z,75.708008
2023-03-21T08:30:42.746Z,75.848389
2023-03-21T08:31:51.350Z,75.744629
2023-03-21T08:33:01.746Z,75.543213
2023-03-21T08:34:10.680Z,75.506592
2023-03-21T08:35:19.370Z,75.097656
2023-03-21T08:36:29.092Z,75.134277
2023-03-21T08:37:37.749Z,75.335693
2023-03-21T08:38:46.428Z,75.097656
2023-03-21T08:39:56.243Z,74.584961
2023-03-21T08:41:04.851Z,74.487305
2023-03-21T08:42:13.506Z,73.974609
2023-03-21T08:43:23.166Z,74.279785
2023-03-21T08:44:31.825Z,73.773193
2023-03-21T08:45:40.658Z,73.876953
2023-03-21T08:46:49.196Z,73.468018
2023-03-21T08:47:57.895Z,73.944092
2023-03-21T08:49:07.513Z,73.840332
2023-03-21T08:50:17.220Z,72.924805
2023-03-21T08:51:26.864Z,72.888184
2023-03-21T08:52:36.550Z,73.297119
2023-03-21T08:53:46.259Z,72.955322
2023-03-21T08:54:54.956Z,72.039795
2023-03-21T08:56:04.630Z,71.942139
2023-03-21T08:57:13.306Z,71.942139
2023-03-21T08:58:22.970Z,71.325684
2023-03-21T08:59:32.681Z,71.362305
2023-03-21T09:00:41.383Z,71.972656
2023-03-21T09:01:51.156Z,71.362305
2023-03-21T09:03:00.733Z,71.77124
2023-03-21T09:04:09.449Z,71.868896
2023-03-21T09:05:18.084Z,72.106934
2023-03-21T09:06:26.754Z,72.076416
2023-03-21T09:07:36.445Z,72.277832
2023-03-21T09:08:45.108Z,72.381592
2023-03-21T09:10:08.369Z,73.193359
2023-03-21T09:11:05.450Z,72.717285
2023-03-21T09:12:15.100Z,73.400879
2023-03-21T09:13:23.749Z,72.888184
2023-03-21T09:14:33.417Z,72.686768
2023-03-21T09:15:43.143Z,72.888184
2023-03-21T09:16:52.807Z,72.857666
2023-03-21T09:18:01.451Z,72.344971
2023-03-21T09:19:09.101Z,70.88623
2023-03-21T09:20:18.847Z,70.88623
2023-03-21T09:21:28.512Z,71.191406
2023-03-21T09:22:37.177Z,71.636963
2023-03-21T09:23:46.854Z,71.228027
2023-03-21T09:24:56.513Z,71.636963
2023-03-21T09:26:06.208Z,71.838379
2023-03-21T09:27:14.902Z,70.98999
2023-03-21T09:28:24.571Z,70.349121
2023-03-21T09:29:34.260Z,70.446777
2023-03-21T09:30:43.973Z,70.751953
2023-03-21T09:31:52.654Z,69.909668
2023-03-21T09:33:01.397Z,69.702148
2023-03-21T09:34:10.095Z,69.091797
2023-03-21T09:35:19.848Z,69.299316
2023-03-21T09:36:29.514Z,69.195557
2023-03-21T09:37:38.182Z,69.396973
2023-03-21T09:38:48.075Z,68.786621
2023-03-21T09:39:57.679Z,69.329834
2023-03-21T09:41:07.390Z,69.567871
2023-03-21T09:42:16.037Z,70.20874
2023-03-21T09:43:25.724Z,70.446777
2023-03-21T09:44:35.386Z,70.819092
2023-03-21T09:45:45.109Z,70.684814
2023-03-21T09:46:54.892Z,71.264648
2023-03-21T09:48:02.548Z,70.617676
2023-03-21T09:49:11.174Z,69.873047
2023-03-21T09:50:19.920Z,68.829346
2023-03-21T09:51:29.592Z,68.188477
2023-03-21T09:52:39.269Z,67.102051
2023-03-21T09:53:48.957Z,67.028809
2023-03-21T09:54:57.607Z,67.974854
2023-03-21T09:56:07.305Z,68.615723
2023-03-21T09:57:14.974Z,69.567871
2023-03-21T09:58:24.653Z,70.043945
2023-03-21T09:59:34.346Z,69.226074
2023-03-21T10:00:44.013Z,68.615723
2023-03-21T10:01:53.655Z,68.615723
2023-03-21T10:03:02.384Z,68.585205
2023-03-21T10:04:11.070Z,68.786621
2023-03-21T10:05:20.736Z,67.974854
2023-03-21T10:06:30.877Z,68.487549
2023-03-21T10:07:38.169Z,69.470215
2023-03-21T10:08:47.869Z,67.810059
2023-03-21T10:09:57.768Z,67.883301
2023-03-21T10:11:06.479Z,67.547607
2023-03-21T10:12:15.152Z,65.820312
2023-03-21T10:13:23.849Z,66.192627
2023-03-21T10:14:33.541Z,65.179443
2023-03-21T10:15:42.016Z,64.331055
2023-03-21T10:16:50.787Z,66.259766
2023-03-21T10:18:00.403Z,65.209961
2023-03-21T10:19:09.299Z,65.41748
2023-03-21T10:20:18.778Z,64.733887
2023-03-21T10:21:51.673Z,65.112305
2023-03-21T10:22:38.173Z,65.008545
2023-03-21T10:23:47.965Z,64.837646
2023-03-21T10:24:57.600Z,64.971924
2023-03-21T10:26:06.312Z,66.186523
2023-03-21T10:27:17.006Z,66.387939
2023-03-21T10:28:26.719Z,65.881348
2023-03-21T10:29:36.434Z,65.240479
2023-03-21T10:30:46.101Z,64.868164
2023-03-21T10:31:54.888Z,65.753174
2023-03-21T10:33:04.582Z,64.703369
2023-03-21T10:34:14.217Z,64.605713
2023-03-21T10:35:21.928Z,64.196777
2023-03-21T10:36:31.646Z,64.532471
2023-03-21T10:37:41.309Z,64.910889
2023-03-21T10:38:50.001Z,64.880371
2023-03-21T10:39:58.733Z,64.776611
2023-03-21T10:41:07.446Z,64.575195
2023-03-21T10:42:17.133Z,64.837646
2023-03-21T10:43:25.822Z,65.545654
2023-03-21T10:44:33.491Z,65.344238
2023-03-21T10:45:43.290Z,65.545654
2023-03-21T10:46:52.142Z,66.052246
2023-03-21T10:48:01.772Z,65.374756
2023-03-21T10:49:11.351Z,65.783691
2023-03-21T10:50:21.005Z,66.052246
2023-03-21T10:51:30.667Z,64.941406
2023-03-21T10:52:39.398Z,65.283203
2023-03-21T10:53:49.059Z,63.934326
2023-03-21T10:54:58.741Z,63.702393
2023-03-21T10:56:07.435Z,62.689209
2023-03-21T10:57:17.181Z,62.426758
2023-03-21T10:58:25.836Z,62.225342
2023-03-21T10:59:35.541Z,61.688232
2023-03-21T11:00:45.397Z,61.761475
2023-03-21T11:01:53.937Z,61.529541
2023-03-21T11:03:03.633Z,61.230469
2023-03-21T11:04:13.300Z,60.723877
2023-03-21T11:05:23.093Z,61.663818
2023-03-21T11:06:31.782Z,61.486816
2023-03-21T11:07:41.454Z,61.590576
2023-03-21T11:08:50.156Z,61.38916
2023-03-21T11:09:59.828Z,61.157227
2023-03-21T11:11:07.507Z,61.230469
2023-03-21T11:12:15.219Z,61.126709
2023-03-21T11:13:24.908Z,60.870361
2023-03-21T11:14:34.576Z,59.399414
2023-03-21T11:15:44.311Z,58.892822
2023-03-21T11:16:53.069Z,59.124756
2023-03-21T11:18:02.748Z,59.283447
2023-03-21T11:19:12.434Z,61.462402
2023-03-21T11:20:21.111Z,60.778809
2023-03-21T11:21:30.834Z,61.920166
2023-03-21T11:22:40.498Z,62.023926
2023-03-21T11:23:49.171Z,63.238525
2023-03-21T11:24:58.884Z,62.774658
2023-03-21T11:26:08.539Z,60.620117
2023-03-21T11:27:18.259Z,60.089111
2023-03-21T11:28:27.950Z,59.484863
2023-03-21T11:29:35.635Z,59.655762
2023-03-21T11:30:44.336Z,59.527588
2023-03-21T11:31:53.015Z,58.520508
2023-03-21T11:33:02.687Z,58.978271
2023-03-21T11:34:11.359Z,60.119629
2023-03-21T11:35:20.027Z,60.723877
2023-03-21T11:36:28.792Z,60.662842
2023-03-21T11:37:38.548Z,58.520508
2023-03-21T11:38:47.281Z,58.666992
2023-03-21T11:39:55.948Z,56.622314
2023-03-21T11:41:05.643Z,55.737305
2023-03-21T11:42:15.314Z,56.085205
2023-03-21T11:43:24.989Z,55.255127
2023-03-21T11:44:33.703Z,53.546143
2023-03-21T11:45:42.448Z,53.973389
2023-03-21T11:46:53.218Z,54.907227
2023-03-21T11:47:59.884Z,55.230713
2023-03-21T11:49:09.560Z,55.865479
2023-03-21T11:50:19.203Z,55.792236
2023-03-21T11:51:26.870Z,56.469727
2023-03-21T11:52:36.553Z,55.834961
2023-03-21T11:53:46.213Z,55.108643
2023-03-21T11:54:55.881Z,55.108643
2023-03-21T11:56:03.564Z,54.278564
2023-03-21T11:57:12.276Z,54.47998
2023-03-21T11:58:20.917Z,54.400635
2023-03-21T11:59:29.659Z,54.632568
2023-03-21T12:00:37.316Z,55.310059
2023-03-21T12:01:47.005Z,57.080078
2023-03-21T12:02:55.763Z,56.921387
2023-03-21T12:04:05.404Z,56.970215
2023-03-21T12:05:14.029Z,55.004883
2023-03-21T12:06:23.729Z,53.997803
2023-03-21T12:07:33.443Z,53.448486
2023-03-21T12:08:42.146Z,54.455566
2023-03-21T12:09:50.849Z,53.973389
2023-03-21T12:11:00.560Z,53.796387
2023-03-21T12:12:09.234Z,52.166748
2023-03-21T12:13:18.956Z,52.416992
2023-03-21T12:14:28.615Z,51.489258
2023-03-21T12:15:38.650Z,51.062012
2023-03-21T12:16:47.966Z,50.714111
2023-03-21T12:17:55.698Z,49.865723
2023-03-21T12:19:05.420Z,49.11499
2023-03-21T12:20:15.123Z,48.31543
2023-03-21T12:21:24.863Z,49.719238
2023-03-21T12:22:34.625Z,49.493408
2023-03-21T12:23:44.320Z,47.094727
2023-03-21T12:24:53.062Z,47.149658
2023-03-21T12:26:02.718Z,47.595215
2023-03-21T12:27:11.472Z,47.991943
2023-03-21T12:28:31.914Z,46.569824
2023-03-21T12:29:31.960Z,44.927979
2023-03-21T12:30:41.616Z,45.825195
2023-03-21T12:31:50.326Z,45.507812
2023-03-21T12:32:58.990Z,45.605469
2023-03-21T12:34:07.668Z,46.350098
2023-03-21T12:35:17.350Z,46.392822
2023-03-21T12:36:27.017Z,47.216797
2023-03-21T12:37:36.716Z,47.839355
2023-03-21T12:38:46.379Z,48.419189
2023-03-21T12:39:56.054Z,47.814941
2023-03-21T12:41:04.714Z,48.242188
2023-03-21T12:42:13.405Z,48.242188
2023-03-21T12:43:22.153Z,48.815918
2023-03-21T12:44:30.999Z,47.747803
2023-03-21T12:45:46.872Z,45.385742
2023-03-21T12:46:50.315Z,45.422363
2023-03-21T12:47:59.948Z,44.049072
2023-03-21T12:49:08.640Z,44.348145
2023-03-21T12:50:17.322Z,44.403076
2023-03-21T12:51:25.985Z,42.169189
2023-03-21T12:52:35.673Z,42.211914
2023-03-21T12:53:45.349Z,40.301514
2023-03-21T12:54:54.059Z,40.50293
2023-03-21T12:56:02.725Z,40.679932
2023-03-21T12:57:12.398Z,39.868164
2023-03-21T12:58:21.100Z,38.775635
2023-03-21T12:59:30.750Z,38.500977
2023-03-21T13:00:39.913Z,37.786865
2023-03-21T13:01:48.102Z,38.360596
2023-03-21T13:02:57.795Z,38.537598
2023-03-21T13:04:06.516Z,40.142822
2023-03-21T13:05:16.132Z,39.825439
2023-03-21T13:06:25.811Z,39.807129
2023-03-21T13:07:34.534Z,39.788818
2023-03-21T13:08:44.230Z,39.074707
2023-03-21T13:09:53.934Z,39.172363
2023-03-21T13:11:03.546Z,39.886475